Time;durP1;ratioP1;P1;durP2;ratioP2;P2;SDS_P1;SDS_P2;PMS_P1;PMS_P2;Temp;Humidity;BMP_temperature;BMP_pressure;BME280_temperature;BME280_humidity;BME280_pressure;Samples;Min_cycle;Max_cycle;Signal;HPM_P1;HPM_P2
2023/11/27 00:01:29;;;;;;;0.20;0.20;;;;;;;;;;5058015;28;20040;-91
2023/11/27 00:03:55;;;;;;;0.10;0.10;;;;;;;;;;5058064;28;20491;-92
2023/11/27 00:06:21;;;;;;;0.30;0.30;;;;;;;;;;5058164;28;20043;-92
2023/11/27 00:08:47;;;;;;;0.30;0.30;;;;;;;;;;5074608;28;20040;-92
2023/11/27 00:11:13;;;;;;;0.25;0.25;;;;;;;;;;5057763;28;20198;-92
2023/11/27 00:13:39;;;;;;;0.10;0.10;;;;;;;;;;5057948;28;20033;-92
2023/11/27 00:16:05;;;;;;;0.10;0.10;;;;;;;;;;5057998;28;20036;-92
2023/11/27 00:18:31;;;;;;;0.10;0.10;;;;;;;;;;5057900;28;20094;-92
2023/11/27 00:20:57;;;;;;;0.10;0.10;;;;;;;;;;5057508;28;20060;-92
2023/11/27 00:23:23;;;;;;;0.10;0.10;;;;;;;;;;5057699;28;20083;-92
2023/11/27 00:25:50;;;;;;;0.10;0.10;;;;;;;;;;5058030;28;20044;-91
2023/11/27 00:28:17;;;;;;;0.10;0.10;;;;;;;;;;5057665;28;20040;-93
2023/11/27 00:30:43;;;;;;;0.10;0.10;;;;;;;;;;5057812;28;20049;-92
2023/11/27 00:33:09;;;;;;;0.20;0.20;;;;;;;;;;5057599;28;20098;-92
2023/11/27 00:35:35;;;;;;;0.10;0.10;;;;;;;;;;5057487;28;20044;-92
2023/11/27 00:38:01;;;;;;;0.93;0.35;;;;;;;;;;5057429;28;20041;-92
2023/11/27 00:40:27;;;;;;;0.20;0.20;;;;;;;;;;5057422;28;20041;-92
2023/11/27 00:42:53;;;;;;;0.17;0.17;;;;;;;;;;5057384;28;20040;-93
2023/11/27 00:45:19;;;;;;;0.10;0.10;;;;;;;;;;5057545;28;20480;-92
2023/11/27 00:47:45;;;;;;;0.10;0.10;;;;;;;;;;5057342;28;20037;-92
2023/11/27 00:50:12;;;;;;;0.10;0.10;;;;;;;;;;5057100;28;20037;-92
2023/11/27 00:52:38;;;;;;;0.20;0.20;;;;;;;;;;5057091;28;20032;-91
2023/11/27 00:55:04;;;;;;;0.10;0.10;;;;;;;;;;5057538;28;20109;-92
2023/11/27 00:57:30;;;;;;;0.20;0.20;;;;;;;;;;5057091;28;20066;-91
2023/11/27 00:59:57;;;;;;;0.20;0.20;;;;;;;;;;5057272;28;20044;-92
2023/11/27 01:02:24;;;;;;;0.13;0.13;;;;;;;;;;5057211;28;20127;-91
2023/11/27 01:04:50;;;;;;;0.10;0.10;;;;;;;;;;5073169;28;20475;-91
2023/11/27 01:07:16;;;;;;;0.40;0.30;;;;;;;;;;5056112;28;20123;-90
2023/11/27 01:09:42;;;;;;;0.20;0.20;;;;;;;;;;5072773;28;20135;-90
2023/11/27 01:12:08;;;;;;;0.10;0.10;;;;;;;;;;5055429;28;20044;-90
2023/11/27 01:14:34;;;;;;;0.20;0.20;;;;;;;;;;5056178;28;20037;-91
2023/11/27 01:17:01;;;;;;;0.10;0.10;;;;;;;;;;5056124;28;20040;-90
2023/11/27 01:19:27;;;;;;;0.20;0.20;;;;;;;;;;5056593;28;20104;-91
2023/11/27 01:21:53;;;;;;;0.10;0.10;;;;;;;;;;5072911;28;20174;-90
2023/11/27 01:24:19;;;;;;;0.10;0.10;;;;;;;;;;5056159;28;20132;-90
2023/11/27 01:26:46;;;;;;;0.10;0.10;;;;;;;;;;5055908;28;20048;-91
2023/11/27 01:29:12;;;;;;;0.20;0.20;;;;;;;;;;5056399;28;20364;-90
2023/11/27 01:31:40;;;;;;;0.20;0.20;;;;;;;;;;5055844;28;20483;-91
2023/11/27 01:34:06;;;;;;;0.20;0.20;;;;;;;;;;5072268;28;20081;-90
2023/11/27 01:36:32;;;;;;;0.10;0.10;;;;;;;;;;5055524;28;20037;-90
2023/11/27 01:38:58;;;;;;;0.10;0.10;;;;;;;;;;5055915;28;20040;-89
2023/11/27 01:41:24;;;;;;;0.10;0.10;;;;;;;;;;5055551;28;20438;-89
2023/11/27 01:43:50;;;;;;;0.75;0.40;;;;;;;;;;5055581;28;20040;-90
2023/11/27 01:46:24;;;;;;;0.20;0.20;;;;;;;;;;5055521;28;20040;-90
2023/11/27 01:48:53;;;;;;;0.10;0.10;;;;;;;;;;5055119;28;20033;-90
2023/11/27 01:51:19;;;;;;;0.43;0.43;;;;;;;;;;5055332;28;20080;-90
2023/11/27 01:53:46;;;;;;;0.15;0.15;;;;;;;;;;5055233;28;20043;-89
2023/11/27 01:56:12;;;;;;;0.98;0.47;;;;;;;;;;5055286;28;20044;-90
2023/11/27 01:58:40;;;;;;;0.10;0.10;;;;;;;;;;5055399;28;20078;-90
2023/11/27 02:01:07;;;;;;;0.20;0.20;;;;;;;;;;5055719;28;20407;-89
2023/11/27 02:03:33;;;;;;;0.20;0.20;;;;;;;;;;5071708;28;20040;-89
2023/11/27 02:05:59;;;;;;;0.10;0.10;;;;;;;;;;5071725;28;20446;-89
2023/11/27 02:08:27;;;;;;;1.65;0.50;;;;;;;;;;5055179;28;20037;-90
2023/11/27 02:10:54;;;;;;;0.10;0.10;;;;;;;;;;5055811;28;20059;-90
2023/11/27 02:13:20;;;;;;;0.20;0.20;;;;;;;;;;5055073;28;20040;-90
2023/11/27 02:15:47;;;;;;;0.50;0.50;;;;;;;;;;5055204;28;20048;-91
2023/11/27 02:18:14;;;;;;;0.57;0.30;;;;;;;;;;5055098;28;20074;-90
2023/11/27 02:20:40;;;;;;;0.15;0.13;;;;;;;;;;5054935;28;20048;-90
2023/11/27 02:23:07;;;;;;;0.20;0.20;;;;;;;;;;5054883;28;20109;-90
2023/11/27 02:25:33;;;;;;;0.10;0.10;;;;;;;;;;5054934;28;20036;-89
2023/11/27 02:27:59;;;;;;;0.20;0.20;;;;;;;;;;5054907;28;20037;-90
2023/11/27 02:30:25;;;;;;;0.20;0.20;;;;;;;;;;5071438;28;20047;-90
2023/11/27 02:32:51;;;;;;;0.20;0.20;;;;;;;;;;5054971;28;20051;-90
2023/11/27 02:35:17;;;;;;;0.10;0.10;;;;;;;;;;5054918;28;20041;-91
2023/11/27 02:37:43;;;;;;;0.20;0.20;;;;;;;;;;5054779;28;20125;-89
2023/11/27 02:40:11;;;;;;;0.20;0.20;;;;;;;;;;5054606;28;20087;-89
2023/11/27 02:42:37;;;;;;;0.40;0.40;;;;;;;;;;5055026;28;20080;-91
2023/11/27 02:45:05;;;;;;;0.20;0.20;;;;;;;;;;5054563;28;20052;-90
2023/11/27 02:47:31;;;;;;;0.10;0.10;;;;;;;;;;5054774;28;20055;-91
2023/11/27 02:49:57;;;;;;;0.10;0.10;;;;;;;;;;5054818;28;20094;-90
2023/11/27 02:52:23;;;;;;;0.10;0.10;;;;;;;;;;5054656;28;20554;-90
2023/11/27 02:54:49;;;;;;;0.10;0.10;;;;;;;;;;5054567;28;20040;-89
2023/11/27 02:57:16;;;;;;;0.40;0.40;;;;;;;;;;5054573;28;20040;-90
2023/11/27 02:59:42;;;;;;;0.10;0.10;;;;;;;;;;5054374;28;20055;-90
2023/11/27 03:02:08;;;;;;;2.05;0.20;;;;;;;;;;5054592;28;20040;-90
2023/11/27 03:04:34;;;;;;;0.20;0.20;;;;;;;;;;5054402;28;20045;-89
2023/11/27 03:09:48;;;;;;;0.10;0.10;;;;;;;;;;5059611;28;20041;-89
2023/11/27 03:12:14;;;;;;;0.10;0.10;;;;;;;;;;5054823;28;20044;-89
2023/11/27 03:14:40;;;;;;;0.82;0.40;;;;;;;;;;5055001;28;20127;-90
2023/11/27 03:17:06;;;;;;;0.82;0.30;;;;;;;;;;5055343;28;20110;-90
2023/11/27 03:19:32;;;;;;;0.22;0.22;;;;;;;;;;5054341;28;20528;-89
2023/11/27 03:21:58;;;;;;;0.20;0.20;;;;;;;;;;5054110;28;20208;-90
2023/11/27 03:24:24;;;;;;;0.10;0.10;;;;;;;;;;5054031;28;20091;-89
2023/11/27 03:26:50;;;;;;;0.10;0.10;;;;;;;;;;5070579;28;20083;-90
2023/11/27 03:29:16;;;;;;;0.20;0.20;;;;;;;;;;5070755;28;20041;-89
2023/11/27 03:31:42;;;;;;;0.28;0.25;;;;;;;;;;5054437;28;20039;-90
2023/11/27 03:34:08;;;;;;;0.10;0.10;;;;;;;;;;5055440;28;20032;-89
2023/11/27 03:36:34;;;;;;;0.20;0.20;;;;;;;;;;5074754;28;20094;-90
2023/11/27 03:39:00;;;;;;;0.20;0.20;;;;;;;;;;5058543;28;20446;-90
2023/11/27 03:41:26;;;;;;;0.20;0.20;;;;;;;;;;5058538;28;20032;-91
2023/11/27 03:43:52;;;;;;;0.17;0.17;;;;;;;;;;5059155;28;20043;-90
2023/11/27 03:46:18;;;;;;;0.30;0.30;;;;;;;;;;5058663;28;20044;-92
2023/11/27 03:48:44;;;;;;;0.10;0.10;;;;;;;;;;5058498;28;20128;-90
2023/11/27 03:51:10;;;;;;;0.10;0.10;;;;;;;;;;5057699;28;20051;-91
2023/11/27 03:53:36;;;;;;;0.20;0.20;;;;;;;;;;5058155;28;20036;-91
2023/11/27 03:56:02;;;;;;;0.30;0.30;;;;;;;;;;5057935;28;20038;-92
2023/11/27 03:58:29;;;;;;;0.10;0.10;;;;;;;;;;5074556;28;20499;-90
2023/11/27 04:00:55;;;;;;;0.20;0.20;;;;;;;;;;5057844;28;20044;-91
2023/11/27 04:03:21;;;;;;;0.10;0.10;;;;;;;;;;5057807;28;20059;-90
2023/11/27 04:05:47;;;;;;;0.17;0.17;;;;;;;;;;5057581;28;20040;-89
2023/11/27 04:08:13;;;;;;;0.10;0.10;;;;;;;;;;5057228;28;20473;-89
2023/11/27 04:10:41;;;;;;;0.40;0.40;;;;;;;;;;5057321;28;20131;-90
2023/11/27 04:13:08;;;;;;;0.10;0.10;;;;;;;;;;5057676;28;20079;-90
2023/11/27 04:15:34;;;;;;;0.10;0.10;;;;;;;;;;5074378;28;20044;-92
2023/11/27 04:18:00;;;;;;;0.20;0.20;;;;;;;;;;5057394;28;20084;-89
2023/11/27 04:20:26;;;;;;;0.10;0.10;;;;;;;;;;5073489;28;20079;-89
2023/11/27 04:22:52;;;;;;;0.20;0.20;;;;;;;;;;5057056;28;20052;-88
2023/11/27 04:25:18;;;;;;;0.20;0.20;;;;;;;;;;5056978;28;20047;-89
2023/11/27 04:27:44;;;;;;;0.20;0.20;;;;;;;;;;5056823;28;20495;-89
2023/11/27 04:30:12;;;;;;;0.10;0.10;;;;;;;;;;5057084;28;20098;-90
2023/11/27 04:32:38;;;;;;;0.20;0.20;;;;;;;;;;5073690;28;20076;-90
2023/11/27 04:35:04;;;;;;;0.20;0.20;;;;;;;;;;5057391;28;20037;-88
2023/11/27 04:37:30;;;;;;;0.10;0.10;;;;;;;;;;5056784;28;20118;-90
2023/11/27 04:39:56;;;;;;;0.30;0.30;;;;;;;;;;5056880;28;20476;-89
2023/11/27 04:42:25;;;;;;;0.10;0.10;;;;;;;;;;5056841;28;20484;-90
2023/11/27 04:44:51;;;;;;;0.10;0.10;;;;;;;;;;5072875;28;20186;-89
2023/11/27 04:47:18;;;;;;;0.40;0.40;;;;;;;;;;5055977;28;20040;-88
2023/11/27 04:49:44;;;;;;;0.17;0.17;;;;;;;;;;5056545;28;20056;-89
2023/11/27 04:52:10;;;;;;;0.10;0.10;;;;;;;;;;5056762;28;20040;-90
2023/11/27 04:54:38;;;;;;;0.10;0.10;;;;;;;;;;5057043;28;20041;-89
2023/11/27 04:57:05;;;;;;;0.25;0.25;;;;;;;;;;5057228;28;20068;-90
2023/11/27 04:59:32;;;;;;;0.10;0.10;;;;;;;;;;5056976;28;20044;-90
2023/11/27 05:01:58;;;;;;;0.10;0.10;;;;;;;;;;5056621;28;20040;-90
2023/11/27 05:04:24;;;;;;;0.20;0.20;;;;;;;;;;5057128;28;20094;-90
2023/11/27 05:06:50;;;;;;;0.20;0.20;;;;;;;;;;5056751;28;20047;-90
2023/11/27 05:09:16;;;;;;;0.22;0.22;;;;;;;;;;5056438;28;20037;-89
2023/11/27 05:11:42;;;;;;;0.10;0.10;;;;;;;;;;5056606;28;20040;-90
2023/11/27 05:14:08;;;;;;;0.10;0.10;;;;;;;;;;5056583;28;20040;-90
2023/11/27 05:16:34;;;;;;;0.20;0.20;;;;;;;;;;5056342;28;20186;-90
2023/11/27 05:19:00;;;;;;;0.10;0.10;;;;;;;;;;5056275;28;20051;-91
2023/11/27 05:21:26;;;;;;;0.10;0.10;;;;;;;;;;5055728;28;20456;-90
2023/11/27 05:23:52;;;;;;;0.30;0.30;;;;;;;;;;5056537;28;20079;-90
2023/11/27 05:26:18;;;;;;;0.10;0.10;;;;;;;;;;5072780;28;20106;-90
2023/11/27 05:28:44;;;;;;;0.10;0.10;;;;;;;;;;5072442;28;20036;-90
2023/11/27 05:31:10;;;;;;;0.20;0.20;;;;;;;;;;5055969;28;20053;-90
2023/11/27 05:33:36;;;;;;;0.63;0.45;;;;;;;;;;5056416;28;20032;-90
2023/11/27 05:36:03;;;;;;;0.10;0.10;;;;;;;;;;5055822;28;20044;-89
2023/11/27 05:38:29;;;;;;;0.22;0.22;;;;;;;;;;5056337;28;20480;-90
2023/11/27 05:41:01;;;;;;;0.10;0.10;;;;;;;;;;5055971;28;20452;-90
2023/11/27 05:43:27;;;;;;;0.15;0.15;;;;;;;;;;5056415;28;20052;-89
2023/11/27 05:45:53;;;;;;;0.20;0.20;;;;;;;;;;5055350;28;20036;-89
2023/11/27 05:48:19;;;;;;;0.35;0.35;;;;;;;;;;5055310;28;20123;-88
2023/11/27 05:50:46;;;;;;;0.10;0.10;;;;;;;;;;5055243;28;20083;-89
2023/11/27 05:53:12;;;;;;;0.10;0.10;;;;;;;;;;5055564;28;20412;-89
2023/11/27 05:55:39;;;;;;;0.10;0.10;;;;;;;;;;5055288;28;20040;-89
2023/11/27 05:58:05;;;;;;;0.10;0.10;;;;;;;;;;5055068;28;20517;-89
2023/11/27 06:00:32;;;;;;;0.10;0.10;;;;;;;;;;5055079;28;20037;-89
2023/11/27 06:02:58;;;;;;;0.10;0.10;;;;;;;;;;5055136;28;20063;-89
2023/11/27 06:05:24;;;;;;;0.63;0.30;;;;;;;;;;5055024;28;20041;-89
2023/11/27 06:07:50;;;;;;;0.20;0.20;;;;;;;;;;5054911;28;20041;-89
2023/11/27 06:10:16;;;;;;;0.20;0.20;;;;;;;;;;5054882;28;20048;-89
2023/11/27 06:12:42;;;;;;;0.20;0.20;;;;;;;;;;5071572;28;20090;-90
2023/11/27 06:15:13;;;;;;;0.30;0.30;;;;;;;;;;5055327;28;20043;-90
2023/11/27 06:17:39;;;;;;;0.10;0.10;;;;;;;;;;5056304;28;20472;-89
2023/11/27 06:20:06;;;;;;;0.35;0.30;;;;;;;;;;5054920;28;20076;-90
2023/11/27 06:22:32;;;;;;;0.10;0.10;;;;;;;;;;5054947;28;20059;-91
2023/11/27 06:24:58;;;;;;;0.10;0.10;;;;;;;;;;5055378;28;20396;-88
2023/11/27 06:27:25;;;;;;;0.10;0.10;;;;;;;;;;5071488;28;20037;-90
2023/11/27 06:29:52;;;;;;;0.10;0.10;;;;;;;;;;5054820;28;20641;-90
2023/11/27 06:32:20;;;;;;;0.20;0.20;;;;;;;;;;5054741;28;20036;-89
2023/11/27 06:34:46;;;;;;;0.20;0.20;;;;;;;;;;5071400;28;20510;-89
2023/11/27 06:37:12;;;;;;;0.20;0.20;;;;;;;;;;5054959;28;20128;-89
2023/11/27 06:39:38;;;;;;;0.20;0.20;;;;;;;;;;5054886;28;20149;-91
2023/11/27 06:42:04;;;;;;;0.20;0.20;;;;;;;;;;5054785;28;20128;-89
2023/11/27 06:44:30;;;;;;;0.10;0.10;;;;;;;;;;5054778;28;20435;-90
2023/11/27 06:46:56;;;;;;;0.25;0.25;;;;;;;;;;5054399;28;20048;-90
2023/11/27 06:49:22;;;;;;;0.20;0.20;;;;;;;;;;5054976;28;20058;-91
2023/11/27 06:51:48;;;;;;;0.10;0.10;;;;;;;;;;5054610;28;20119;-90
2023/11/27 06:54:14;;;;;;;0.20;0.20;;;;;;;;;;5054931;28;20406;-90
2023/11/27 06:56:41;;;;;;;0.20;0.20;;;;;;;;;;5054854;28;20044;-91
2023/11/27 06:59:07;;;;;;;0.20;0.20;;;;;;;;;;5054650;28;20051;-90
2023/11/27 07:01:34;;;;;;;0.10;0.10;;;;;;;;;;5054716;28;20143;-90
2023/11/27 07:04:00;;;;;;;0.47;0.30;;;;;;;;;;5071174;28;20059;-90
2023/11/27 07:06:26;;;;;;;0.35;0.35;;;;;;;;;;5071103;28;20033;-90
2023/11/27 07:08:52;;;;;;;0.20;0.20;;;;;;;;;;5054982;28;20071;-89
2023/11/27 07:11:22;;;;;;;0.10;0.10;;;;;;;;;;5074822;28;20063;-89
2023/11/27 07:13:48;;;;;;;0.40;0.40;;;;;;;;;;5058584;28;20033;-89
2023/11/27 07:16:14;;;;;;;0.20;0.20;;;;;;;;;;5058371;28;20408;-89
2023/11/27 07:18:40;;;;;;;0.10;0.10;;;;;;;;;;5058651;28;20047;-89
2023/11/27 07:21:06;;;;;;;0.20;0.20;;;;;;;;;;5074625;28;20052;-88
2023/11/27 07:23:32;;;;;;;3.50;0.30;;;;;;;;;;5058240;28;20052;-88
2023/11/27 07:25:58;;;;;;;0.20;0.20;;;;;;;;;;5058081;28;20051;-88
2023/11/27 07:28:25;;;;;;;0.10;0.10;;;;;;;;;;5057923;28;20127;-90
2023/11/27 07:30:51;;;;;;;0.10;0.10;;;;;;;;;;5058431;28;20048;-88
2023/11/27 07:33:17;;;;;;;0.20;0.20;;;;;;;;;;5058103;28;20537;-89
2023/11/27 07:35:43;;;;;;;0.10;0.10;;;;;;;;;;5058243;28;20043;-89
2023/11/27 07:38:09;;;;;;;0.10;0.10;;;;;;;;;;5057888;28;20487;-89
2023/11/27 07:40:35;;;;;;;0.70;0.30;;;;;;;;;;5058041;28;20504;-90
2023/11/27 07:43:02;;;;;;;0.10;0.10;;;;;;;;;;5074137;28;20040;-89
2023/11/27 07:45:30;;;;;;;0.10;0.10;;;;;;;;;;5057897;28;20045;-90
2023/11/27 07:47:56;;;;;;;0.13;0.13;;;;;;;;;;5059517;28;20047;-94
2023/11/27 07:50:23;;;;;;;0.20;0.20;;;;;;;;;;5058465;28;20419;-89
2023/11/27 07:52:52;;;;;;;0.10;0.10;;;;;;;;;;5058530;28;20387;-89
2023/11/27 07:55:19;;;;;;;0.20;0.20;;;;;;;;;;5058023;28;20072;-93
2023/11/27 07:57:45;;;;;;;0.20;0.20;;;;;;;;;;5058627;28;20041;-96
2023/11/27 08:00:14;;;;;;;0.20;0.20;;;;;;;;;;5058054;28;20066;-92
2023/11/27 08:02:42;;;;;;;0.30;0.30;;;;;;;;;;5058566;28;20044;-92
2023/11/27 08:05:08;;;;;;;0.10;0.10;;;;;;;;;;5056286;28;20044;-89
2023/11/27 08:07:35;;;;;;;0.22;0.22;;;;;;;;;;5040275;28;20086;-88
2023/11/27 08:10:03;;;;;;;0.30;0.30;;;;;;;;;;5057197;28;20403;-91
2023/11/27 08:12:29;;;;;;;0.32;0.32;;;;;;;;;;5040488;28;20037;-91
2023/11/27 08:14:56;;;;;;;0.20;0.20;;;;;;;;;;5040861;28;20131;-91
2023/11/27 08:17:26;;;;;;;1.00;1.00;;;;;;;;;;5040322;28;20037;-91
2023/11/27 08:19:52;;;;;;;0.10;0.10;;;;;;;;;;5041251;28;20044;-90
2023/11/27 08:22:18;;;;;;;0.10;0.10;;;;;;;;;;5057464;28;20127;-91
2023/11/27 08:24:44;;;;;;;0.20;0.20;;;;;;;;;;5057841;28;20076;-92
2023/11/27 08:27:11;;;;;;;0.45;0.45;;;;;;;;;;5040862;28;20066;-90
2023/11/27 08:29:37;;;;;;;0.13;0.13;;;;;;;;;;5057790;28;20052;-91
2023/11/27 08:32:04;;;;;;;0.25;0.25;;;;;;;;;;5073743;28;20126;-90
2023/11/27 08:34:31;;;;;;;0.15;0.15;;;;;;;;;;5040597;28;20327;-90
2023/11/27 08:36:59;;;;;;;0.10;0.10;;;;;;;;;;5040533;28;20502;-90
2023/11/27 08:39:25;;;;;;;0.40;0.40;;;;;;;;;;5040427;28;20036;-90
2023/11/27 08:41:51;;;;;;;0.10;0.10;;;;;;;;;;5040343;28;20036;-90
2023/11/27 08:44:18;;;;;;;0.45;0.40;;;;;;;;;;5040003;28;20068;-90
2023/11/27 08:46:46;;;;;;;0.10;0.10;;;;;;;;;;5056806;28;20082;-90
2023/11/27 08:49:12;;;;;;;0.10;0.10;;;;;;;;;;5040234;28;20041;-90
2023/11/27 08:51:38;;;;;;;0.20;0.20;;;;;;;;;;5040100;28;20036;-90
2023/11/27 08:54:04;;;;;;;0.10;0.10;;;;;;;;;;5040540;28;20041;-90
2023/11/27 08:56:33;;;;;;;0.10;0.10;;;;;;;;;;5039765;28;20036;-90
2023/11/27 08:59:00;;;;;;;0.10;0.10;;;;;;;;;;5022146;28;20044;-91
2023/11/27 09:01:26;;;;;;;0.20;0.20;;;;;;;;;;5020033;28;20049;-90
2023/11/27 09:03:52;;;;;;;0.10;0.10;;;;;;;;;;5036745;28;20091;-91
2023/11/27 09:06:19;;;;;;;0.30;0.30;;;;;;;;;;5019979;28;20381;-90
2023/11/27 09:08:45;;;;;;;0.45;0.43;;;;;;;;;;5020352;28;20381;-91
2023/11/27 09:11:11;;;;;;;0.60;0.50;;;;;;;;;;5019963;28;20048;-91
2023/11/27 09:13:38;;;;;;;0.70;0.35;;;;;;;;;;5036773;28;20033;-91
2023/11/27 09:16:04;;;;;;;0.20;0.20;;;;;;;;;;5020260;28;20041;-91
2023/11/27 09:18:32;;;;;;;0.10;0.10;;;;;;;;;;5020443;28;20068;-90
2023/11/27 09:20:58;;;;;;;0.10;0.10;;;;;;;;;;5036234;28;20515;-90
2023/11/27 09:23:24;;;;;;;0.10;0.10;;;;;;;;;;5020020;28;20071;-89
2023/11/27 09:28:29;;;;;;;0.63;0.63;;;;;;;;;;5925263;22;20048;-90
2023/11/27 09:30:55;;;;;;;0.10;0.10;;;;;;;;;;5048876;28;20106;-90
2023/11/27 09:33:22;;;;;;;0.30;0.30;;;;;;;;;;5056135;28;20131;-89
2023/11/27 09:35:48;;;;;;;0.20;0.20;;;;;;;;;;5039904;28;20431;-90
2023/11/27 09:38:14;;;;;;;0.10;0.10;;;;;;;;;;5039337;28;20036;-90
2023/11/27 09:40:41;;;;;;;0.10;0.10;;;;;;;;;;5071971;28;20456;-89
2023/11/27 09:43:08;;;;;;;0.22;0.22;;;;;;;;;;5056070;28;20044;-89
2023/11/27 09:45:34;;;;;;;0.30;0.30;;;;;;;;;;5055779;28;20044;-89
2023/11/27 09:48:04;;;;;;;0.10;0.10;;;;;;;;;;5055434;28;20040;-90
2023/11/27 09:50:30;;;;;;;0.35;0.35;;;;;;;;;;5038220;28;20033;-89
2023/11/27 09:53:04;;;;;;;0.10;0.10;;;;;;;;;;5055401;28;20569;-89
2023/11/27 09:55:31;;;;;;;0.10;0.10;;;;;;;;;;5055124;28;20040;-89
2023/11/27 09:57:59;;;;;;;0.10;0.10;;;;;;;;;;5038746;28;20051;-89
2023/11/27 10:00:27;;;;;;;0.20;0.20;;;;;;;;;;5038889;28;20040;-90
2023/11/27 10:02:53;;;;;;;0.30;0.30;;;;;;;;;;5039008;28;20036;-90
2023/11/27 10:05:23;;;;;;;0.30;0.30;;;;;;;;;;5055883;28;20044;-89
2023/11/27 10:07:50;;;;;;;0.10;0.10;;;;;;;;;;5039247;28;20072;-89
2023/11/27 10:10:16;;;;;;;0.10;0.10;;;;;;;;;;5038717;28;20040;-90
2023/11/27 10:12:46;;;;;;;0.10;0.10;;;;;;;;;;5071850;28;20086;-89
2023/11/27 10:15:12;;;;;;;0.20;0.20;;;;;;;;;;5055105;28;20036;-89
2023/11/27 10:17:41;;;;;;;0.20;0.20;;;;;;;;;;5055283;28;20040;-89
2023/11/27 10:20:12;;;;;;;0.45;0.43;;;;;;;;;;5038474;28;20056;-89
2023/11/27 10:25:14;;;;;;;0.10;0.10;;;;;;;;;;5032681;28;20045;-87
2023/11/27 10:27:46;;;;;;;0.10;0.10;;;;;;;;;;4982755;28;20046;-89
2023/11/27 10:30:19;;;;;;;0.10;0.10;;;;;;;;;;4982706;28;20504;-89
2023/11/27 10:32:45;;;;;;;0.10;0.10;;;;;;;;;;4998976;28;20037;-91
2023/11/27 10:35:12;;;;;;;1.25;0.40;;;;;;;;;;4983165;28;20120;-90
2023/11/27 10:37:39;;;;;;;0.40;0.40;;;;;;;;;;4982700;28;20045;-89
2023/11/27 10:40:07;;;;;;;0.10;0.10;;;;;;;;;;4982479;28;20045;-89
2023/11/27 10:42:33;;;;;;;0.32;0.32;;;;;;;;;;4999072;28;20080;-89
2023/11/27 10:45:08;;;;;;;0.10;0.10;;;;;;;;;;4982199;28;20097;-89
2023/11/27 10:47:33;;;;;;;0.25;0.25;;;;;;;;;;4999455;28;20049;-89
2023/11/27 10:50:00;;;;;;;0.20;0.20;;;;;;;;;;4984754;28;20045;-87
2023/11/27 10:52:26;;;;;;;0.32;0.28;;;;;;;;;;5017414;28;20044;-87
2023/11/27 10:54:52;;;;;;;0.20;0.20;;;;;;;;;;4984749;28;20045;-89
2023/11/27 10:57:19;;;;;;;0.10;0.10;;;;;;;;;;4983507;28;20042;-88
2023/11/27 10:59:46;;;;;;;0.10;0.10;;;;;;;;;;4998283;28;20052;-88
2023/11/27 11:02:32;;;;;;;0.20;0.20;;;;;;;;;;4982517;28;20436;-94
2023/11/27 11:05:00;;;;;;;0.10;0.10;;;;;;;;;;4984688;28;20046;-90
2023/11/27 11:07:28;;;;;;;0.10;0.10;;;;;;;;;;4982420;28;20393;-89
2023/11/27 11:09:55;;;;;;;0.40;0.40;;;;;;;;;;4998117;28;20041;-89
2023/11/27 11:12:23;;;;;;;0.10;0.10;;;;;;;;;;4998502;28;20116;-91
2023/11/27 11:14:49;;;;;;;0.20;0.20;;;;;;;;;;4998640;28;20037;-89
2023/11/27 11:17:19;;;;;;;0.10;0.10;;;;;;;;;;4981782;28;20041;-88
2023/11/27 11:20:13;;;;;;;0.13;0.13;;;;;;;;;;4986510;28;20101;-92
2023/11/27 11:22:39;;;;;;;0.17;0.17;;;;;;;;;;4990871;28;20050;-90
2023/11/27 11:25:28;;;;;;;0.30;0.30;;;;;;;;;;4997780;28;20060;-88
2023/11/27 11:28:05;;;;;;;0.10;0.10;;;;;;;;;;5014014;28;20064;-88
2023/11/27 11:30:32;;;;;;;0.10;0.10;;;;;;;;;;4998403;28;20088;-88
2023/11/27 11:32:58;;;;;;;0.10;0.10;;;;;;;;;;4998057;28;20045;-89
2023/11/27 11:35:28;;;;;;;0.10;0.10;;;;;;;;;;4998019;28;20041;-88
2023/11/27 11:37:54;;;;;;;0.30;0.30;;;;;;;;;;4982182;28;20389;-88
2023/11/27 11:40:21;;;;;;;0.13;0.13;;;;;;;;;;4981695;28;20041;-88
2023/11/27 11:42:48;;;;;;;0.10;0.10;;;;;;;;;;4997742;28;20125;-88
2023/11/27 11:45:19;;;;;;;0.10;0.10;;;;;;;;;;4981630;28;20480;-88
2023/11/27 11:47:59;;;;;;;0.20;0.20;;;;;;;;;;4982248;28;20103;-89
2023/11/27 11:50:29;;;;;;;0.10;0.10;;;;;;;;;;4997914;28;20041;-88
2023/11/27 11:52:56;;;;;;;0.30;0.30;;;;;;;;;;4997883;28;20504;-88
2023/11/27 11:55:26;;;;;;;0.22;0.22;;;;;;;;;;4999311;28;20041;-88
2023/11/27 11:57:56;;;;;;;0.10;0.10;;;;;;;;;;5001586;28;20060;-89
2023/11/27 12:00:22;;;;;;;0.10;0.10;;;;;;;;;;4985360;28;20037;-88
2023/11/27 12:02:50;;;;;;;0.13;0.13;;;;;;;;;;4985031;28;20051;-89
2023/11/27 12:05:16;;;;;;;0.30;0.30;;;;;;;;;;5001316;28;20513;-88
2023/11/27 12:07:44;;;;;;;0.10;0.10;;;;;;;;;;5001094;28;20129;-88
2023/11/27 12:10:16;;;;;;;0.30;0.30;;;;;;;;;;5001042;28;20037;-88
2023/11/27 12:12:42;;;;;;;0.17;0.17;;;;;;;;;;5001151;28;20041;-89
2023/11/27 12:15:11;;;;;;;0.10;0.10;;;;;;;;;;4984954;28;20291;-88
2023/11/27 12:17:37;;;;;;;0.38;0.38;;;;;;;;;;5000994;28;20053;-88
2023/11/27 12:20:04;;;;;;;0.10;0.10;;;;;;;;;;4984550;28;20135;-88
2023/11/27 12:22:30;;;;;;;0.10;0.10;;;;;;;;;;4985174;28;20052;-89
2023/11/27 12:24:56;;;;;;;0.10;0.10;;;;;;;;;;4981476;28;20147;-89
2023/11/27 12:27:22;;;;;;;0.30;0.30;;;;;;;;;;4981487;28;20046;-89
2023/11/27 12:29:48;;;;;;;0.63;0.40;;;;;;;;;;4997426;28;20061;-88
2023/11/27 12:32:16;;;;;;;0.10;0.10;;;;;;;;;;4981338;28;20048;-88
2023/11/27 12:34:42;;;;;;;0.10;0.10;;;;;;;;;;5013614;28;20072;-88
2023/11/27 12:37:08;;;;;;;0.65;0.17;;;;;;;;;;4981253;28;20048;-89
2023/11/27 12:39:37;;;;;;;0.30;0.30;;;;;;;;;;4981497;28;20433;-88
2023/11/27 12:42:03;;;;;;;0.22;0.22;;;;;;;;;;4997114;28;20126;-88
2023/11/27 12:44:30;;;;;;;0.10;0.10;;;;;;;;;;4981300;28;20478;-89
2023/11/27 12:46:56;;;;;;;0.25;0.25;;;;;;;;;;4981391;28;20096;-88
2023/11/27 12:49:23;;;;;;;0.10;0.10;;;;;;;;;;4981039;28;20038;-89
2023/11/27 12:51:53;;;;;;;0.10;0.10;;;;;;;;;;4997430;28;20429;-89
2023/11/27 12:54:19;;;;;;;0.10;0.10;;;;;;;;;;4997836;28;20041;-89
2023/11/27 12:56:51;;;;;;;0.10;0.10;;;;;;;;;;4997145;28;20034;-89
2023/11/27 12:59:18;;;;;;;0.20;0.20;;;;;;;;;;4981029;28;20041;-89
2023/11/27 13:01:53;;;;;;;0.10;0.10;;;;;;;;;;4996964;28;20041;-88
2023/11/27 13:04:47;;;;;;;0.63;0.50;;;;;;;;;;4981874;28;20041;-88
2023/11/27 13:07:16;;;;;;;0.10;0.10;;;;;;;;;;4998077;28;20053;-89
2023/11/27 13:09:42;;;;;;;0.20;0.20;;;;;;;;;;4980883;28;20034;-89
2023/11/27 13:12:15;;;;;;;0.15;0.15;;;;;;;;;;4980483;28;20039;-89
2023/11/27 13:14:44;;;;;;;0.15;0.15;;;;;;;;;;4997631;28;20485;-89
2023/11/27 13:17:18;;;;;;;0.13;0.13;;;;;;;;;;4980656;28;20042;-88
2023/11/27 13:19:45;;;;;;;0.22;0.22;;;;;;;;;;4996356;28;20042;-88
2023/11/27 13:22:14;;;;;;;0.10;0.10;;;;;;;;;;4996530;28;20083;-88
2023/11/27 13:24:44;;;;;;;0.10;0.10;;;;;;;;;;4996977;28;20042;-89
2023/11/27 13:27:16;;;;;;;0.20;0.20;;;;;;;;;;4996415;28;20034;-89
2023/11/27 13:29:46;;;;;;;0.20;0.20;;;;;;;;;;4981346;28;20555;-88
2023/11/27 13:32:15;;;;;;;0.10;0.10;;;;;;;;;;4980297;28;20057;-88
2023/11/27 13:34:44;;;;;;;0.10;0.10;;;;;;;;;;4980203;28;20041;-89
2023/11/27 13:37:10;;;;;;;0.13;0.13;;;;;;;;;;4980284;28;20038;-88
2023/11/27 13:39:54;;;;;;;0.10;0.10;;;;;;;;;;4980045;28;20092;-89
2023/11/27 13:42:22;;;;;;;0.20;0.20;;;;;;;;;;4982648;28;20504;-89
2023/11/27 13:44:49;;;;;;;0.10;0.10;;;;;;;;;;4980533;28;20425;-89
2023/11/27 13:47:20;;;;;;;0.10;0.10;;;;;;;;;;4979997;28;20543;-89
2023/11/27 13:49:48;;;;;;;0.10;0.10;;;;;;;;;;4995911;28;20077;-88
2023/11/27 13:52:16;;;;;;;0.10;0.10;;;;;;;;;;4996719;28;20041;-89
2023/11/27 13:54:42;;;;;;;0.10;0.10;;;;;;;;;;4996176;28;20069;-89
2023/11/27 13:57:09;;;;;;;0.20;0.20;;;;;;;;;;4979972;28;20042;-89
2023/11/27 13:59:35;;;;;;;0.10;0.10;;;;;;;;;;4995906;28;20488;-88
2023/11/27 14:02:09;;;;;;;0.10;0.10;;;;;;;;;;5012498;28;20489;-89
2023/11/27 14:04:35;;;;;;;0.10;0.10;;;;;;;;;;4980771;28;20038;-89
2023/11/27 14:07:06;;;;;;;0.10;0.10;;;;;;;;;;4979553;28;20044;-88
2023/11/27 14:12:19;;;;;;;0.10;0.10;;;;;;;;;;4998320;28;20108;-89
2023/11/27 14:14:58;;;;;;;0.10;0.10;;;;;;;;;;4979880;28;20486;-89
2023/11/27 14:17:32;;;;;;;0.15;0.15;;;;;;;;;;4981170;28;20064;-89
2023/11/27 14:20:45;;;;;;;0.10;0.10;;;;;;;;;;4980351;28;20401;-88
2023/11/27 14:22:57;;;;;;;0.10;0.10;;;;;;;;;;4962687;28;20132;-89
2023/11/27 14:28:30;;;;;;;0.20;0.20;;;;;;;;;;4962463;28;20050;-88
2023/11/27 14:30:57;;;;;;;0.10;0.10;;;;;;;;;;4947205;28;20128;-89
2023/11/27 14:33:23;;;;;;;0.10;0.10;;;;;;;;;;4960600;28;20043;-89
2023/11/27 14:35:54;;;;;;;0.10;0.10;;;;;;;;;;4966830;28;20054;-89
2023/11/27 14:38:22;;;;;;;0.10;0.10;;;;;;;;;;4966231;28;20042;-89
2023/11/27 14:40:48;;;;;;;0.17;0.17;;;;;;;;;;4944271;28;20136;-89
2023/11/27 14:43:14;;;;;;;0.10;0.10;;;;;;;;;;4943820;28;20053;-88
2023/11/27 14:45:48;;;;;;;0.10;0.10;;;;;;;;;;4943739;28;20534;-88
2023/11/27 14:48:14;;;;;;;0.20;0.20;;;;;;;;;;4944856;28;20043;-89
2023/11/27 14:50:41;;;;;;;0.10;0.10;;;;;;;;;;4959386;28;20038;-89
2023/11/27 14:53:07;;;;;;;0.10;0.10;;;;;;;;;;4959595;28;20053;-89
2023/11/27 14:55:34;;;;;;;0.10;0.10;;;;;;;;;;4943787;28;20042;-88
2023/11/27 14:58:01;;;;;;;0.20;0.20;;;;;;;;;;4943807;28;20065;-89